Terminal Aerodrome Forecast
Issued by NWS

Home | Current Version | Previous Version | Text Only | Print | Product List | Glossary On
Versions: 1 2 3 4 5 6 7 8 9 10 11 12 13 14 15 16 17 18 19
000
FTUS46 KMFR 030841 AAA
TAFOTH
TAF AMD
KOTH 030841Z 0309/0406 13003KT 1/2SM FG OVC002
     FM031500 05005KT 5SM BR SCT006
     FM031700 04005KT P6SM SKC
     FM032000 36010KT P6SM SKC
     FM032300 36012G18KT P6SM SKC
     FM040300 VRB04KT P6SM SKC=

USA.gov is the U.S. government's official web portal to all federal, state and local government web resources and services.